Ana Sayfa
METAR-TAF:

METAR-TAF

Havaalanları :

Raton Municipal Airport (Crews Field)

Raton, New Mexico, Amerika Birleşik Devletleri

Enlem: 36-44-31N, Boylam: 104-39-28W, yükseklik: 1935 m

Güncel hava durumu gözlemi

Rapor saat 07:16 UTC de 44 dakika önce yapıldı.
Rüzgar güney/güneybatıdan 10 kt
Sıcaklık 6°C
Nem 81%
Basınç 1021 hPa
Görüş mesafesi: 16.1 km
1000 ft yükseklikte az bulutlu
1400 ft yükseklikte parçalı bulutlu
2000 ft yükseklikte çok bulutlu

METAR: KRTN 100716Z AUTO 20010KT 10SM FEW010 SCT014 OVC020 06/03 A3016 RMK AO2 RAE16 P0002 T00610033

Saat: 02:00 (08:00 UTC)


TAF: eksik

4.000'den fazla havaalanı için hava durumu gözlemleri ve tahminleri (METAR ve TAF raporları).

Kullanılabilir istasyonlar harita üzerinde sarı ve kırmızı noktalarla gösterilir.

İstasyonun adını görmek için fareyi noktanın üzerinde gezdirin.

Sonrasında hava gözlem ve tahminlerini görmek için tıklayın.

Haritayı değiştirmek için: yaklaştırmak için siyah artı işaretli yeşil düğmeye ve uzaklaştırmak için de eksi işaretli düğmeye hızla tıklayın; bitişik haritalar için yeşil okları kullanın.


METAR-TAF: